createdAt,value
2023-03-11T00:04:45.614Z,77.96
2023-03-11T00:09:47.257Z,78.20
2023-03-11T00:14:48.940Z,77.69
2023-03-11T00:19:50.409Z,77.65
2023-03-11T00:24:51.981Z,78.25
2023-03-11T00:29:53.454Z,78.50
2023-03-11T00:34:54.936Z,78.40
2023-03-11T00:39:56.451Z,78.08
2023-03-11T00:44:57.982Z,78.33
2023-03-11T00:49:59.876Z,78.34
2023-03-11T00:55:01.412Z,78.49
2023-03-11T01:00:04.187Z,78.41
2023-03-11T01:05:06.740Z,78.62
2023-03-11T01:10:10.167Z,78.88
2023-03-11T01:15:33.923Z,78.72
2023-03-11T01:20:37.695Z,78.89
2023-03-11T01:25:39.487Z,78.97
2023-03-11T01:30:42.363Z,79.26
2023-03-11T01:35:45.194Z,79.14
2023-03-11T01:40:49.482Z,79.18
2023-03-11T01:45:51.112Z,78.73
2023-03-11T01:50:52.609Z,78.80
2023-03-11T01:55:54.851Z,78.79
2023-03-11T02:00:57.590Z,78.65
2023-03-11T02:06:02.804Z,78.47
2023-03-11T02:11:06.302Z,78.57
2023-03-11T02:16:09.087Z,78.50
2023-03-11T02:21:27.967Z,78.69
2023-03-11T02:26:40.627Z,78.86
2023-03-11T02:31:43.603Z,78.60
2023-03-11T02:36:45.688Z,78.87
2023-03-11T02:41:47.460Z,78.69
2023-03-11T02:46:49.760Z,78.58
2023-03-11T02:51:52.348Z,78.65
2023-03-11T02:56:53.903Z,78.50
2023-03-11T03:01:55.439Z,78.50
2023-03-11T03:06:56.958Z,78.34
2023-03-11T03:11:58.457Z,78.46
2023-03-11T03:17:00.073Z,78.61
2023-03-11T03:22:01.679Z,78.74
2023-03-11T03:27:03.159Z,78.74
2023-03-11T03:32:05.658Z,78.72
2023-03-11T03:37:07.263Z,78.74
2023-03-11T03:42:08.805Z,78.92
2023-03-11T03:47:10.452Z,79.07
2023-03-11T03:52:12.016Z,79.26
2023-03-11T03:57:13.502Z,79.15
2023-03-11T04:02:15.068Z,79.16
2023-03-11T04:07:16.614Z,79.32
2023-03-11T04:12:18.184Z,79.06
2023-03-11T04:17:19.700Z,79.23
2023-03-11T04:22:21.229Z,79.35
2023-03-11T04:27:22.846Z,79.31
2023-03-11T04:32:24.557Z,79.24
2023-03-11T04:37:29.947Z,79.06
2023-03-11T04:42:31.590Z,79.07
2023-03-11T04:47:33.149Z,79.68
2023-03-11T04:52:34.677Z,79.54
2023-03-11T04:57:36.408Z,80.04
2023-03-11T05:02:39.760Z,80.41
2023-03-11T05:07:41.228Z,80.25
2023-03-11T05:12:42.729Z,80.28
2023-03-11T05:17:44.318Z,79.90
2023-03-11T05:22:46.235Z,80.24
2023-03-11T05:27:47.720Z,79.65
2023-03-11T05:32:50.042Z,79.78
2023-03-11T05:37:53.620Z,79.69
2023-03-11T05:42:55.101Z,79.43
2023-03-11T05:47:56.732Z,79.18
2023-03-11T05:52:58.251Z,78.91
2023-03-11T05:57:59.790Z,79.09
2023-03-11T06:03:01.295Z,79.46
2023-03-11T06:08:02.881Z,79.13
2023-03-11T06:13:04.488Z,78.99
2023-03-11T06:18:06.115Z,79.03
2023-03-11T06:23:07.602Z,79.32
2023-03-11T06:28:09.717Z,79.21
2023-03-11T06:33:11.383Z,78.89
2023-03-11T06:38:12.960Z,79.04
2023-03-11T06:43:14.529Z,79.09
2023-03-11T06:48:16.034Z,79.04
2023-03-11T06:53:17.672Z,78.39
2023-03-11T06:58:19.156Z,78.52
2023-03-11T07:03:20.703Z,78.85
2023-03-11T07:08:22.244Z,78.63
2023-03-11T07:13:23.817Z,78.63
2023-03-11T07:18:25.307Z,78.83
2023-03-11T07:23:26.818Z,79.36
2023-03-11T07:28:29.337Z,79.85
2023-03-11T07:33:32.646Z,79.83
2023-03-11T07:38:36.821Z,79.75
2023-03-11T07:43:39.310Z,80.11
2023-03-11T07:48:40.927Z,79.65
2023-03-11T07:53:42.947Z,79.53
2023-03-11T07:58:45.928Z,79.76
2023-03-11T08:03:50.110Z,79.65
2023-03-11T08:08:52.193Z,79.40
2023-03-11T08:13:54.014Z,79.56
2023-03-11T08:18:56.097Z,79.71
2023-03-11T08:23:59.842Z,79.88
2023-03-11T08:29:01.306Z,79.77
2023-03-11T08:34:07.237Z,79.35
2023-03-11T08:39:09.566Z,79.37
2023-03-11T08:44:11.165Z,80.03
2023-03-11T08:49:12.794Z,79.86
2023-03-11T08:54:14.338Z,79.53
2023-03-11T08:59:15.843Z,80.05
2023-03-11T09:04:17.428Z,79.79
2023-03-11T09:09:20.509Z,79.26
2023-03-11T09:14:22.079Z,79.21
2023-03-11T09:19:23.583Z,79.41
2023-03-11T09:24:25.386Z,79.61
2023-03-11T09:29:27.886Z,79.39
2023-03-11T09:34:29.383Z,79.35
2023-03-11T09:39:31.331Z,79.43
2023-03-11T09:45:00.941Z,79.55
2023-03-11T09:50:31.498Z,79.25
2023-03-11T09:55:51.540Z,78.80
2023-03-11T10:00:53.402Z,78.37
2023-03-11T10:06:03.777Z,78.00
2023-03-11T10:11:23.877Z,77.73
2023-03-11T10:16:38.603Z,77.89
2023-03-11T10:22:04.831Z,77.97
2023-03-11T10:27:20.211Z,78.15
2023-03-11T10:32:38.413Z,78.87
2023-03-11T10:37:49.813Z,79.07
2023-03-11T10:42:54.143Z,78.47
2023-03-11T10:47:56.552Z,78.99
2023-03-11T10:53:15.729Z,78.71
2023-03-11T10:58:48.681Z,78.15
2023-03-11T11:03:55.509Z,78.18
2023-03-11T11:09:19.738Z,78.00
2023-03-11T11:14:22.970Z,78.43
2023-03-11T11:19:24.581Z,78.07
2023-03-11T11:24:28.917Z,78.45
2023-03-11T11:29:30.584Z,78.01
2023-03-11T11:34:34.889Z,77.21
2023-03-11T11:40:00.018Z,77.71
2023-03-11T11:45:10.120Z,78.20
2023-03-11T11:50:28.995Z,78.58
2023-03-11T11:55:31.832Z,79.13
2023-03-11T12:01:08.295Z,79.99
2023-03-11T12:06:32.944Z,78.84
2023-03-11T12:11:42.156Z,77.66
2023-03-11T12:17:03.661Z,76.48
2023-03-11T12:22:08.588Z,75.95
2023-03-11T12:27:14.666Z,76.06
2023-03-11T12:32:30.390Z,76.98
2023-03-11T12:37:32.507Z,77.90
2023-03-11T12:42:41.009Z,78.86
2023-03-11T12:48:11.414Z,79.23
2023-03-11T12:53:17.839Z,79.45
2023-03-11T12:58:34.803Z,78.82
2023-03-11T13:03:48.087Z,79.12
2023-03-11T13:08:55.360Z,79.18
2023-03-11T13:14:32.884Z,78.12
2023-03-11T13:19:36.898Z,77.47
2023-03-11T13:24:38.342Z,76.91
2023-03-11T13:30:18.331Z,75.89
2023-03-11T13:35:38.716Z,75.11
2023-03-11T13:40:43.231Z,74.68
2023-03-11T13:45:53.776Z,74.13
2023-03-11T13:51:06.570Z,73.96
2023-03-11T13:56:18.309Z,74.15
2023-03-11T14:01:20.267Z,74.17
2023-03-11T14:06:22.059Z,74.70
2023-03-11T14:11:31.561Z,75.52
2023-03-11T14:16:44.132Z,76.65
2023-03-11T14:21:54.878Z,76.28
2023-03-11T14:26:59.819Z,75.89
2023-03-11T14:32:25.498Z,75.88
2023-03-11T14:37:34.864Z,75.88
2023-03-11T14:42:40.570Z,74.94
2023-03-11T14:47:59.849Z,74.17
2023-03-11T14:53:04.248Z,73.76
2023-03-11T14:58:10.328Z,73.88
2023-03-11T15:03:29.045Z,73.51
2023-03-11T15:08:36.555Z,72.99
2023-03-11T15:13:40.914Z,72.62
2023-03-11T15:18:43.081Z,72.17
2023-03-11T15:23:53.066Z,70.79
2023-03-11T15:28:57.430Z,69.20
2023-03-11T15:34:28.319Z,68.89
2023-03-11T15:39:32.630Z,68.33
2023-03-11T15:44:53.639Z,68.62
2023-03-11T15:49:55.235Z,68.76
2023-03-11T15:54:56.704Z,68.79
2023-03-11T16:00:00.289Z,68.20
2023-03-11T16:05:01.944Z,66.94
2023-03-11T16:10:04.488Z,66.72
2023-03-11T16:15:07.475Z,66.65
2023-03-11T16:20:09.929Z,67.71
2023-03-11T16:25:22.906Z,67.64
2023-03-11T16:30:26.057Z,66.86
2023-03-11T16:35:27.771Z,67.37
2023-03-11T16:40:29.789Z,67.79
2023-03-11T16:45:31.447Z,67.51
2023-03-11T16:50:34.320Z,66.96
2023-03-11T16:55:37.223Z,67.16
2023-03-11T17:00:39.072Z,66.57
2023-03-11T17:05:40.884Z,67.35
2023-03-11T17:10:44.413Z,67.80
2023-03-11T17:15:46.701Z,67.84
2023-03-11T17:20:48.198Z,67.59
2023-03-11T17:25:49.757Z,67.80
2023-03-11T17:30:51.249Z,68.33
2023-03-11T17:36:07.464Z,68.78
2023-03-11T17:41:11.412Z,69.36
2023-03-11T17:46:15.686Z,69.76
2023-03-11T17:51:21.818Z,70.21
2023-03-11T17:56:24.003Z,70.87
2023-03-11T18:01:27.823Z,71.19
2023-03-11T18:06:30.749Z,71.39
2023-03-11T18:11:32.592Z,71.35
2023-03-11T18:16:34.152Z,71.38
2023-03-11T18:21:35.798Z,71.48
2023-03-11T18:26:37.299Z,71.32
2023-03-11T18:31:39.234Z,70.88
2023-03-11T18:36:42.152Z,70.96
2023-03-11T18:41:43.723Z,70.84
2023-03-11T18:46:45.295Z,70.43
2023-03-11T18:51:46.801Z,70.32
2023-03-11T18:56:48.301Z,70.50
2023-03-11T19:01:51.094Z,70.32
2023-03-11T19:06:52.705Z,69.64
2023-03-11T19:11:54.243Z,69.13
2023-03-11T19:16:55.755Z,68.75
2023-03-11T19:21:57.324Z,68.77
2023-03-11T19:26:58.795Z,68.39
2023-03-11T19:32:02.970Z,68.31
2023-03-11T19:37:05.037Z,68.29
2023-03-11T19:42:06.490Z,68.60
2023-03-11T19:47:08.018Z,68.78
2023-03-11T19:52:09.959Z,69.04
2023-03-11T19:57:11.494Z,68.60
2023-03-11T20:02:13.347Z,68.71
2023-03-11T20:07:15.040Z,68.64
2023-03-11T20:12:16.753Z,68.67
2023-03-11T20:17:18.320Z,68.52
2023-03-11T20:22:20.301Z,68.49
2023-03-11T20:27:21.829Z,68.46
2023-03-11T20:32:23.456Z,68.88
2023-03-11T20:37:25.189Z,68.96
2023-03-11T20:42:26.749Z,69.23
2023-03-11T20:47:28.340Z,68.87
2023-03-11T20:52:35.727Z,69.05
2023-03-11T20:57:38.727Z,69.25
2023-03-11T21:02:41.872Z,69.31
2023-03-11T21:07:43.730Z,69.57
2023-03-11T21:12:45.392Z,69.92
2023-03-11T21:17:47.060Z,70.08
2023-03-11T21:22:48.721Z,70.21
2023-03-11T21:27:50.230Z,70.26
2023-03-11T21:32:51.894Z,70.57
2023-03-11T21:37:54.262Z,70.68
2023-03-11T21:42:56.003Z,70.67
2023-03-11T21:47:57.525Z,70.59
2023-03-11T21:52:59.054Z,70.76
2023-03-11T21:58:00.737Z,70.98
2023-03-11T22:03:02.388Z,70.90
2023-03-11T22:08:04.528Z,70.86
2023-03-11T22:13:06.517Z,71.38
2023-03-11T22:18:08.185Z,71.24
2023-03-11T22:23:10.194Z,71.62
2023-03-11T22:28:13.066Z,71.52
2023-03-11T22:33:14.684Z,71.55
2023-03-11T22:38:16.274Z,71.25
2023-03-11T22:43:17.822Z,71.32
2023-03-11T22:48:19.314Z,71.15
2023-03-11T22:53:23.061Z,71.26
2023-03-11T22:58:24.602Z,71.52
2023-03-11T23:03:26.522Z,71.27
2023-03-11T23:08:28.548Z,71.22
2023-03-11T23:13:31.542Z,71.70
2023-03-11T23:18:34.309Z,71.95
2023-03-11T23:23:35.806Z,72.18
2023-03-11T23:28:41.126Z,72.50
2023-03-11T23:33:43.193Z,72.85
2023-03-11T23:38:45.748Z,72.66
2023-03-11T23:43:47.659Z,72.29
2023-03-11T23:48:49.134Z,72.69
2023-03-11T23:53:50.605Z,73.04
2023-03-11T23:58:52.117Z,72.89
